VOMMVNKT

Guest
Details From VOMM - Chennai Intl
To VNKT - Kathmandu Tribhuvan Intl
Flight Number -
Tags Generated
Created
Modified
Stats Distance 929 nm / 1,720 km
Max Altitude 0 ft / 0 m
Waypoints 3
Social Downloads 1
Likes 0
Share VATSIM

Download

Looking for another format? Having issues loading an existing format? Contact us
Advertisement - Login to hide

Notes

Generated

Route

VOMM KTM VNKT

ID Type Via Altitude Latitude Longitude Leg Dist Tot Dist Heading (true) Name
O VOMM APT - 0 ft / 0 m 13.00194˚ 80.16584˚ - 0 nm - -
KTM VOR - 0 ft / 0 m 27.67472˚ 85.34917˚ 927 nm 927 nm 17° / 19° KATHMANDU VOR-DME
O VNKT APT - 0 ft / 0 m 27.68381˚ 85.35342˚ 0 nm 928 nm 22° / 22° -

Altitude Profile

Advertisement - Login to hide

Weather


0- 5 10 15 20 25 30 35+ Temperature / ° C

Clouds and Precipitation
Forecast for 2018-05-28 00:00 UTC. Updated 7 hours ago

Ground ~20,000 ft ~40,000 ft Winds

VOMM

Details ICAO VOMM (MAA)
Name CHENNAI INTL
Region India
Timezone Asia/Kolkata (UTC+5.5)
Stats Elevation 52 ft / 16 m (AMSL)
Location 12.993860° 80.171442°
Runways 2
Magnetic Variation 1.174° W

METAR

Not found

TAF

TAF VOMM 272300Z 2800/2906 18010KT 6000 SCT020 BECMG 2806/28076 09010KT BECMG 2818/2819 18010KT

Decode

Departure Runways

ID Width Length Bearing (true) Bearing (mag) Surface Threshold Offset Overrun Length
07 148 ft / 45 m 12,003 ft / 3,659 m 68.87° 70.04° Asphalt 0 ft / 0 m 481 ft / 147 m
12 148 ft / 45 m 6,711 ft / 2,046 m 117.77° 118.94° Asphalt 0 ft / 0 m 0 ft / 0 m
25 148 ft / 45 m 12,003 ft / 3,659 m 248.88° 250.05° Asphalt 0 ft / 0 m 492 ft / 150 m
30 148 ft / 45 m 6,711 ft / 2,046 m 297.78° 298.95° Asphalt 1,130 ft / 344 m 0 ft / 0 m

VNKT

Details ICAO VNKT (KTM)
Name Kathmandu Tribhuvan Intl
Region Nepal
Timezone Asia/Kathmandu (UTC+5.8)
Stats Elevation 4,390 ft / 1,338 m (AMSL)
Location 27.696583° 85.359100°
Runways 1
Magnetic Variation 0.514° E

METAR

Not found

TAF

TAF VNKT 272300Z 2800/2824 VRB02KT 3000 BR FEW010 SCT100 PROB40 2801/2803 2000 BR BECMG 2804/2805 13004KT 6000 FEW015 SCT030 BECMG 2807/2808 28010KT 7000 FEW020 SCT030 BKN100 PROB40 2808/2814 30012KT 4000 -TSRA FEW025CB BECMG 2814/2815 10003KT 6000 FEW020 SCT030

Decode

Destination Runways

ID Width Length Bearing (true) Bearing (mag) Surface Threshold Offset Overrun Length
02 148 ft / 45 m 10,017 ft / 3,053 m 21.50° 20.99° Asphalt 0 ft / 0 m 0 ft / 0 m
20 148 ft / 45 m 10,017 ft / 3,053 m 201.51° 201.00° Asphalt 400 ft / 122 m 0 ft / 0 m

Popular Alternatives